sensor_id;sensor_type;location;lat;lon;timestamp;P1;durP1;ratioP1;P2;durP2;ratioP2
68225;SDS011;55045;49.410;11.030;2023-06-10T00:01:31;4.55;;;3.15;;
68225;SDS011;55045;49.410;11.030;2023-06-10T00:04:36;4.10;;;2.35;;
68225;SDS011;55045;49.410;11.030;2023-06-10T00:07:40;6.32;;;3.53;;
68225;SDS011;55045;49.410;11.030;2023-06-10T00:10:44;6.68;;;3.00;;
68225;SDS011;55045;49.410;11.030;2023-06-10T00:13:47;5.63;;;3.58;;
68225;SDS011;55045;49.410;11.030;2023-06-10T00:16:50;4.78;;;3.47;;
68225;SDS011;55045;49.410;11.030;2023-06-10T00:19:54;5.20;;;3.20;;
68225;SDS011;55045;49.410;11.030;2023-06-10T00:22:58;6.82;;;3.83;;
68225;SDS011;55045;49.410;11.030;2023-06-10T00:26:03;6.22;;;3.38;;
68225;SDS011;55045;49.410;11.030;2023-06-10T00:29:08;4.00;;;3.33;;
68225;SDS011;55045;49.410;11.030;2023-06-10T00:32:12;4.45;;;3.20;;
68225;SDS011;55045;49.410;11.030;2023-06-10T00:35:15;5.60;;;2.90;;
68225;SDS011;55045;49.410;11.030;2023-06-10T00:38:20;3.63;;;2.80;;
68225;SDS011;55045;49.410;11.030;2023-06-10T00:41:23;9.05;;;3.00;;
68225;SDS011;55045;49.410;11.030;2023-06-10T00:44:28;4.88;;;3.40;;
68225;SDS011;55045;49.410;11.030;2023-06-10T00:47:31;3.70;;;3.10;;
68225;SDS011;55045;49.410;11.030;2023-06-10T00:50:35;6.13;;;3.60;;
68225;SDS011;55045;49.410;11.030;2023-06-10T00:53:42;4.40;;;2.63;;
68225;SDS011;55045;49.410;11.030;2023-06-10T00:56:46;4.13;;;2.65;;
68225;SDS011;55045;49.410;11.030;2023-06-10T00:59:50;7.82;;;3.78;;
68225;SDS011;55045;49.410;11.030;2023-06-10T01:02:54;4.63;;;3.30;;
68225;SDS011;55045;49.410;11.030;2023-06-10T01:05:59;5.50;;;3.10;;
68225;SDS011;55045;49.410;11.030;2023-06-10T01:09:11;5.95;;;3.70;;
68225;SDS011;55045;49.410;11.030;2023-06-10T01:12:24;6.45;;;3.60;;
68225;SDS011;55045;49.410;11.030;2023-06-10T01:15:34;7.38;;;3.53;;
68225;SDS011;55045;49.410;11.030;2023-06-10T01:18:38;6.68;;;4.00;;
68225;SDS011;55045;49.410;11.030;2023-06-10T01:21:45;5.10;;;3.92;;
68225;SDS011;55045;49.410;11.030;2023-06-10T01:24:52;4.00;;;2.78;;
68225;SDS011;55045;49.410;11.030;2023-06-10T01:27:58;6.47;;;3.83;;
68225;SDS011;55045;49.410;11.030;2023-06-10T01:31:08;5.00;;;3.20;;
68225;SDS011;55045;49.410;11.030;2023-06-10T01:34:19;4.78;;;2.92;;
68225;SDS011;55045;49.410;11.030;2023-06-10T01:37:28;10.43;;;4.67;;
68225;SDS011;55045;49.410;11.030;2023-06-10T01:40:33;5.68;;;4.25;;
68225;SDS011;55045;49.410;11.030;2023-06-10T01:43:37;7.93;;;2.80;;
68225;SDS011;55045;49.410;11.030;2023-06-10T01:46:41;6.90;;;4.70;;
68225;SDS011;55045;49.410;11.030;2023-06-10T01:49:45;14.95;;;3.60;;
68225;SDS011;55045;49.410;11.030;2023-06-10T01:52:50;5.22;;;3.45;;
68225;SDS011;55045;49.410;11.030;2023-06-10T01:55:54;4.93;;;3.65;;
68225;SDS011;55045;49.410;11.030;2023-06-10T01:58:57;8.95;;;3.60;;
68225;SDS011;55045;49.410;11.030;2023-06-10T02:02:01;7.03;;;3.75;;
68225;SDS011;55045;49.410;11.030;2023-06-10T02:05:07;7.25;;;3.30;;
68225;SDS011;55045;49.410;11.030;2023-06-10T02:08:12;6.05;;;3.90;;
68225;SDS011;55045;49.410;11.030;2023-06-10T02:11:16;5.63;;;3.70;;
68225;SDS011;55045;49.410;11.030;2023-06-10T02:14:20;6.72;;;4.40;;
68225;SDS011;55045;49.410;11.030;2023-06-10T02:17:23;6.68;;;3.92;;
68225;SDS011;55045;49.410;11.030;2023-06-10T02:20:26;8.80;;;3.25;;
68225;SDS011;55045;49.410;11.030;2023-06-10T02:23:31;5.85;;;4.25;;
68225;SDS011;55045;49.410;11.030;2023-06-10T02:26:36;6.95;;;3.60;;
68225;SDS011;55045;49.410;11.030;2023-06-10T02:29:40;10.15;;;4.63;;
68225;SDS011;55045;49.410;11.030;2023-06-10T02:32:45;6.63;;;3.30;;
68225;SDS011;55045;49.410;11.030;2023-06-10T02:35:51;6.75;;;4.18;;
68225;SDS011;55045;49.410;11.030;2023-06-10T02:38:56;6.80;;;4.20;;
68225;SDS011;55045;49.410;11.030;2023-06-10T02:42:00;4.53;;;3.30;;
68225;SDS011;55045;49.410;11.030;2023-06-10T02:45:06;6.10;;;3.65;;
68225;SDS011;55045;49.410;11.030;2023-06-10T02:48:14;8.75;;;5.05;;
68225;SDS011;55045;49.410;11.030;2023-06-10T02:51:18;7.82;;;4.63;;
68225;SDS011;55045;49.410;11.030;2023-06-10T02:54:24;7.75;;;4.03;;
68225;SDS011;55045;49.410;11.030;2023-06-10T02:57:29;8.52;;;4.90;;
68225;SDS011;55045;49.410;11.030;2023-06-10T03:00:34;5.18;;;3.90;;
68225;SDS011;55045;49.410;11.030;2023-06-10T03:03:39;8.57;;;4.50;;
68225;SDS011;55045;49.410;11.030;2023-06-10T03:06:47;6.70;;;4.13;;
68225;SDS011;55045;49.410;11.030;2023-06-10T03:09:57;7.28;;;5.20;;
68225;SDS011;55045;49.410;11.030;2023-06-10T03:13:01;8.43;;;4.38;;
68225;SDS011;55045;49.410;11.030;2023-06-10T03:16:05;5.93;;;4.18;;
68225;SDS011;55045;49.410;11.030;2023-06-10T03:19:12;5.10;;;3.53;;
68225;SDS011;55045;49.410;11.030;2023-06-10T03:22:19;5.78;;;3.92;;
68225;SDS011;55045;49.410;11.030;2023-06-10T03:25:44;7.30;;;3.78;;
68225;SDS011;55045;49.410;11.030;2023-06-10T03:28:50;9.45;;;4.65;;
68225;SDS011;55045;49.410;11.030;2023-06-10T03:34:20;6.63;;;3.85;;
68225;SDS011;55045;49.410;11.030;2023-06-10T03:37:23;8.50;;;5.25;;
68225;SDS011;55045;49.410;11.030;2023-06-10T03:40:27;8.38;;;4.35;;
68225;SDS011;55045;49.410;11.030;2023-06-10T03:43:32;8.38;;;4.35;;
68225;SDS011;55045;49.410;11.030;2023-06-10T03:46:36;5.28;;;3.70;;
68225;SDS011;55045;49.410;11.030;2023-06-10T03:49:41;6.15;;;4.22;;
68225;SDS011;55045;49.410;11.030;2023-06-10T03:52:46;5.63;;;4.13;;
68225;SDS011;55045;49.410;11.030;2023-06-10T03:55:51;5.85;;;4.47;;
68225;SDS011;55045;49.410;11.030;2023-06-10T03:58:58;5.57;;;4.05;;
68225;SDS011;55045;49.410;11.030;2023-06-10T04:02:01;9.45;;;4.25;;
68225;SDS011;55045;49.410;11.030;2023-06-10T04:05:09;7.20;;;4.18;;
68225;SDS011;55045;49.410;11.030;2023-06-10T04:08:12;5.45;;;3.90;;
68225;SDS011;55045;49.410;11.030;2023-06-10T04:11:15;5.82;;;3.72;;
68225;SDS011;55045;49.410;11.030;2023-06-10T04:14:20;11.95;;;4.55;;
68225;SDS011;55045;49.410;11.030;2023-06-10T04:17:23;6.00;;;4.00;;
68225;SDS011;55045;49.410;11.030;2023-06-10T04:20:28;8.25;;;4.05;;
68225;SDS011;55045;49.410;11.030;2023-06-10T04:23:31;6.65;;;4.15;;
68225;SDS011;55045;49.410;11.030;2023-06-10T04:26:35;5.78;;;3.92;;
68225;SDS011;55045;49.410;11.030;2023-06-10T04:29:39;7.03;;;4.07;;
68225;SDS011;55045;49.410;11.030;2023-06-10T04:32:42;8.57;;;3.85;;
68225;SDS011;55045;49.410;11.030;2023-06-10T04:35:51;7.95;;;5.10;;
68225;SDS011;55045;49.410;11.030;2023-06-10T04:38:56;8.77;;;5.15;;
68225;SDS011;55045;49.410;11.030;2023-06-10T04:42:02;5.47;;;4.10;;
68225;SDS011;55045;49.410;11.030;2023-06-10T04:45:07;7.65;;;4.50;;
68225;SDS011;55045;49.410;11.030;2023-06-10T04:48:12;6.15;;;3.85;;
68225;SDS011;55045;49.410;11.030;2023-06-10T04:51:17;4.72;;;3.92;;
68225;SDS011;55045;49.410;11.030;2023-06-10T04:54:20;8.48;;;3.90;;
68225;SDS011;55045;49.410;11.030;2023-06-10T04:57:24;6.35;;;4.28;;
68225;SDS011;55045;49.410;11.030;2023-06-10T05:00:27;9.75;;;4.50;;
68225;SDS011;55045;49.410;11.030;2023-06-10T05:03:31;15.77;;;4.13;;
68225;SDS011;55045;49.410;11.030;2023-06-10T05:06:35;7.85;;;4.47;;
68225;SDS011;55045;49.410;11.030;2023-06-10T05:09:39;8.05;;;3.88;;
68225;SDS011;55045;49.410;11.030;2023-06-10T05:12:42;6.50;;;4.10;;
68225;SDS011;55045;49.410;11.030;2023-06-10T05:15:45;7.05;;;3.78;;
68225;SDS011;55045;49.410;11.030;2023-06-10T05:18:48;7.93;;;4.00;;
68225;SDS011;55045;49.410;11.030;2023-06-10T05:21:54;5.25;;;3.75;;
68225;SDS011;55045;49.410;11.030;2023-06-10T05:24:57;6.57;;;4.32;;
68225;SDS011;55045;49.410;11.030;2023-06-10T05:28:00;6.75;;;4.38;;
68225;SDS011;55045;49.410;11.030;2023-06-10T05:31:04;4.40;;;3.30;;
68225;SDS011;55045;49.410;11.030;2023-06-10T05:34:08;6.07;;;3.72;;
68225;SDS011;55045;49.410;11.030;2023-06-10T05:37:12;5.28;;;3.92;;
68225;SDS011;55045;49.410;11.030;2023-06-10T05:40:16;6.68;;;4.07;;
68225;SDS011;55045;49.410;11.030;2023-06-10T05:43:19;4.88;;;3.50;;
68225;SDS011;55045;49.410;11.030;2023-06-10T05:46:23;6.65;;;4.93;;
68225;SDS011;55045;49.410;11.030;2023-06-10T05:49:26;6.07;;;3.85;;
68225;SDS011;55045;49.410;11.030;2023-06-10T05:52:31;8.18;;;4.43;;
68225;SDS011;55045;49.410;11.030;2023-06-10T05:55:34;8.13;;;3.40;;
68225;SDS011;55045;49.410;11.030;2023-06-10T05:58:38;6.25;;;4.20;;
68225;SDS011;55045;49.410;11.030;2023-06-10T06:01:41;5.88;;;3.78;;
68225;SDS011;55045;49.410;11.030;2023-06-10T06:04:44;2.42;;;2.22;;
68225;SDS011;55045;49.410;11.030;2023-06-10T06:07:49;5.03;;;3.80;;
68225;SDS011;55045;49.410;11.030;2023-06-10T06:10:53;6.45;;;4.03;;
68225;SDS011;55045;49.410;11.030;2023-06-10T06:13:56;7.13;;;5.22;;
68225;SDS011;55045;49.410;11.030;2023-06-10T06:16:59;5.15;;;3.35;;
68225;SDS011;55045;49.410;11.030;2023-06-10T06:20:03;5.78;;;3.65;;
68225;SDS011;55045;49.410;11.030;2023-06-10T06:23:11;5.30;;;3.88;;
68225;SDS011;55045;49.410;11.030;2023-06-10T06:26:15;3.03;;;2.65;;
68225;SDS011;55045;49.410;11.030;2023-06-10T06:29:18;4.47;;;3.15;;
68225;SDS011;55045;49.410;11.030;2023-06-10T06:32:22;6.78;;;3.65;;
68225;SDS011;55045;49.410;11.030;2023-06-10T06:35:26;3.38;;;2.67;;
68225;SDS011;55045;49.410;11.030;2023-06-10T06:38:31;4.20;;;3.05;;
68225;SDS011;55045;49.410;11.030;2023-06-10T06:41:34;3.75;;;2.70;;
68225;SDS011;55045;49.410;11.030;2023-06-10T06:44:38;5.75;;;3.17;;
68225;SDS011;55045;49.410;11.030;2023-06-10T06:47:42;5.85;;;3.38;;
68225;SDS011;55045;49.410;11.030;2023-06-10T06:50:45;5.47;;;3.72;;
68225;SDS011;55045;49.410;11.030;2023-06-10T06:53:50;4.65;;;3.35;;
68225;SDS011;55045;49.410;11.030;2023-06-10T06:56:55;5.53;;;3.45;;
68225;SDS011;55045;49.410;11.030;2023-06-10T06:59:59;5.60;;;4.20;;
68225;SDS011;55045;49.410;11.030;2023-06-10T07:03:02;4.03;;;3.47;;
68225;SDS011;55045;49.410;11.030;2023-06-10T07:06:06;4.57;;;3.08;;
68225;SDS011;55045;49.410;11.030;2023-06-10T07:09:12;2.80;;;2.60;;
68225;SDS011;55045;49.410;11.030;2023-06-10T07:12:15;10.27;;;4.07;;
68225;SDS011;55045;49.410;11.030;2023-06-10T07:15:19;2.13;;;2.00;;
68225;SDS011;55045;49.410;11.030;2023-06-10T07:18:23;3.85;;;3.33;;
68225;SDS011;55045;49.410;11.030;2023-06-10T07:21:26;4.07;;;3.35;;
68225;SDS011;55045;49.410;11.030;2023-06-10T07:24:31;5.20;;;3.15;;
68225;SDS011;55045;49.410;11.030;2023-06-10T07:27:35;3.03;;;2.72;;
68225;SDS011;55045;49.410;11.030;2023-06-10T07:30:39;4.35;;;3.10;;
68225;SDS011;55045;49.410;11.030;2023-06-10T07:33:42;3.17;;;2.75;;
68225;SDS011;55045;49.410;11.030;2023-06-10T07:36:46;3.88;;;2.92;;
68225;SDS011;55045;49.410;11.030;2023-06-10T07:39:51;4.85;;;2.78;;
68225;SDS011;55045;49.410;11.030;2023-06-10T07:42:54;3.47;;;3.10;;
68225;SDS011;55045;49.410;11.030;2023-06-10T07:45:58;5.47;;;3.30;;
68225;SDS011;55045;49.410;11.030;2023-06-10T07:49:01;4.68;;;3.58;;
68225;SDS011;55045;49.410;11.030;2023-06-10T07:52:05;5.03;;;3.30;;
68225;SDS011;55045;49.410;11.030;2023-06-10T07:55:11;5.22;;;3.80;;
68225;SDS011;55045;49.410;11.030;2023-06-10T07:58:14;4.55;;;3.65;;
68225;SDS011;55045;49.410;11.030;2023-06-10T08:01:17;3.00;;;2.65;;
68225;SDS011;55045;49.410;11.030;2023-06-10T08:04:20;3.72;;;2.67;;
68225;SDS011;55045;49.410;11.030;2023-06-10T08:07:24;7.45;;;3.50;;
68225;SDS011;55045;49.410;11.030;2023-06-10T08:10:28;4.50;;;3.17;;
68225;SDS011;55045;49.410;11.030;2023-06-10T08:13:32;3.60;;;2.58;;
68225;SDS011;55045;49.410;11.030;2023-06-10T08:16:36;6.13;;;3.22;;
68225;SDS011;55045;49.410;11.030;2023-06-10T08:19:41;1.83;;;1.73;;
68225;SDS011;55045;49.410;11.030;2023-06-10T08:22:44;1.30;;;1.30;;
68225;SDS011;55045;49.410;11.030;2023-06-10T08:25:49;2.20;;;2.00;;
68225;SDS011;55045;49.410;11.030;2023-06-10T08:28:52;2.45;;;2.22;;
68225;SDS011;55045;49.410;11.030;2023-06-10T08:31:57;3.80;;;2.97;;
68225;SDS011;55045;49.410;11.030;2023-06-10T08:35:01;3.20;;;2.90;;
68225;SDS011;55045;49.410;11.030;2023-06-10T08:38:04;5.13;;;2.70;;
68225;SDS011;55045;49.410;11.030;2023-06-10T08:41:09;2.85;;;2.00;;
68225;SDS011;55045;49.410;11.030;2023-06-10T08:44:16;2.05;;;1.90;;
68225;SDS011;55045;49.410;11.030;2023-06-10T08:47:23;3.42;;;1.38;;
68225;SDS011;55045;49.410;11.030;2023-06-10T08:50:29;4.77;;;2.63;;
68225;SDS011;55045;49.410;11.030;2023-06-10T08:53:33;1.83;;;1.73;;
68225;SDS011;55045;49.410;11.030;2023-06-10T08:56:41;2.40;;;1.70;;
68225;SDS011;55045;49.410;11.030;2023-06-10T08:59:47;3.83;;;2.28;;
68225;SDS011;55045;49.410;11.030;2023-06-10T09:02:50;2.63;;;2.38;;
68225;SDS011;55045;49.410;11.030;2023-06-10T09:05:55;2.15;;;2.00;;
68225;SDS011;55045;49.410;11.030;2023-06-10T09:08:59;2.97;;;2.55;;
68225;SDS011;55045;49.410;11.030;2023-06-10T09:12:06;2.25;;;2.10;;
68225;SDS011;55045;49.410;11.030;2023-06-10T09:15:10;2.28;;;2.08;;
68225;SDS011;55045;49.410;11.030;2023-06-10T09:18:16;2.42;;;2.15;;
68225;SDS011;55045;49.410;11.030;2023-06-10T09:21:19;3.50;;;2.63;;
68225;SDS011;55045;49.410;11.030;2023-06-10T09:24:23;3.88;;;2.58;;
68225;SDS011;55045;49.410;11.030;2023-06-10T09:27:31;2.15;;;1.92;;
68225;SDS011;55045;49.410;11.030;2023-06-10T09:34:20;3.40;;;2.15;;
68225;SDS011;55045;49.410;11.030;2023-06-10T09:37:27;3.25;;;2.38;;
68225;SDS011;55045;49.410;11.030;2023-06-10T09:40:30;3.75;;;1.90;;
68225;SDS011;55045;49.410;11.030;2023-06-10T09:43:38;2.70;;;2.50;;
68225;SDS011;55045;49.410;11.030;2023-06-10T09:46:44;2.55;;;1.90;;
68225;SDS011;55045;49.410;11.030;2023-06-10T09:49:50;2.42;;;1.75;;
68225;SDS011;55045;49.410;11.030;2023-06-10T09:52:55;4.80;;;2.43;;
68225;SDS011;55045;49.410;11.030;2023-06-10T09:55:59;2.05;;;1.70;;
68225;SDS011;55045;49.410;11.030;2023-06-10T09:59:07;2.95;;;2.33;;
68225;SDS011;55045;49.410;11.030;2023-06-10T10:02:13;2.28;;;2.08;;
68225;SDS011;55045;49.410;11.030;2023-06-10T10:05:21;1.85;;;1.70;;
68225;SDS011;55045;49.410;11.030;2023-06-10T10:08:25;3.17;;;2.60;;
68225;SDS011;55045;49.410;11.030;2023-06-10T10:11:28;3.97;;;2.17;;
68225;SDS011;55045;49.410;11.030;2023-06-10T10:14:35;2.88;;;2.03;;
68225;SDS011;55045;49.410;11.030;2023-06-10T10:17:39;2.85;;;2.40;;
68225;SDS011;55045;49.410;11.030;2023-06-10T10:20:49;2.80;;;2.60;;
68225;SDS011;55045;49.410;11.030;2023-06-10T10:23:57;2.42;;;2.10;;
68225;SDS011;55045;49.410;11.030;2023-06-10T10:27:05;5.03;;;2.20;;
68225;SDS011;55045;49.410;11.030;2023-06-10T10:30:21;2.10;;;1.90;;
68225;SDS011;55045;49.410;11.030;2023-06-10T10:33:27;2.92;;;2.47;;
68225;SDS011;55045;49.410;11.030;2023-06-10T10:36:36;3.03;;;2.67;;
68225;SDS011;55045;49.410;11.030;2023-06-10T10:39:40;2.95;;;2.40;;
68225;SDS011;55045;49.410;11.030;2023-06-10T10:42:45;1.50;;;1.17;;
68225;SDS011;55045;49.410;11.030;2023-06-10T10:45:57;2.88;;;2.30;;
68225;SDS011;55045;49.410;11.030;2023-06-10T10:49:01;2.50;;;2.30;;
68225;SDS011;55045;49.410;11.030;2023-06-10T10:52:10;3.38;;;2.80;;
68225;SDS011;55045;49.410;11.030;2023-06-10T10:55:14;1.85;;;1.48;;
68225;SDS011;55045;49.410;11.030;2023-06-10T10:58:17;2.80;;;2.05;;
68225;SDS011;55045;49.410;11.030;2023-06-10T11:01:27;4.03;;;3.40;;
68225;SDS011;55045;49.410;11.030;2023-06-10T11:04:44;2.42;;;1.60;;
68225;SDS011;55045;49.410;11.030;2023-06-10T11:07:53;3.38;;;2.40;;
68225;SDS011;55045;49.410;11.030;2023-06-10T11:10:58;3.15;;;2.85;;
68225;SDS011;55045;49.410;11.030;2023-06-10T11:14:08;4.53;;;2.47;;
68225;SDS011;55045;49.410;11.030;2023-06-10T11:17:18;4.97;;;2.60;;
68225;SDS011;55045;49.410;11.030;2023-06-10T11:24:12;2.85;;;2.60;;
68225;SDS011;55045;49.410;11.030;2023-06-10T11:27:20;3.28;;;2.00;;
68225;SDS011;55045;49.410;11.030;2023-06-10T11:30:27;8.82;;;2.10;;
68225;SDS011;55045;49.410;11.030;2023-06-10T11:33:37;3.30;;;3.00;;
68225;SDS011;55045;49.410;11.030;2023-06-10T11:36:41;5.07;;;3.00;;
68225;SDS011;55045;49.410;11.030;2023-06-10T11:39:49;2.08;;;1.73;;
68225;SDS011;55045;49.410;11.030;2023-06-10T11:42:54;2.58;;;2.38;;
68225;SDS011;55045;49.410;11.030;2023-06-10T11:45:58;3.40;;;2.50;;
68225;SDS011;55045;49.410;11.030;2023-06-10T11:49:02;2.95;;;2.50;;
68225;SDS011;55045;49.410;11.030;2023-06-10T11:52:07;2.35;;;2.08;;
68225;SDS011;55045;49.410;11.030;2023-06-10T11:55:11;3.60;;;2.45;;
68225;SDS011;55045;49.410;11.030;2023-06-10T11:58:15;2.78;;;2.00;;
68225;SDS011;55045;49.410;11.030;2023-06-10T12:01:19;2.85;;;2.17;;
68225;SDS011;55045;49.410;11.030;2023-06-10T12:04:30;2.10;;;1.90;;
68225;SDS011;55045;49.410;11.030;2023-06-10T12:07:33;2.25;;;1.80;;
68225;SDS011;55045;49.410;11.030;2023-06-10T12:10:41;3.40;;;1.92;;
68225;SDS011;55045;49.410;11.030;2023-06-10T12:13:45;2.35;;;2.15;;
68225;SDS011;55045;49.410;11.030;2023-06-10T12:16:51;3.08;;;2.33;;
68225;SDS011;55045;49.410;11.030;2023-06-10T12:19:54;2.83;;;2.45;;
68225;SDS011;55045;49.410;11.030;2023-06-10T12:22:58;2.97;;;2.50;;
68225;SDS011;55045;49.410;11.030;2023-06-10T12:26:04;1.77;;;1.63;;
68225;SDS011;55045;49.410;11.030;2023-06-10T12:29:16;2.33;;;2.05;;
68225;SDS011;55045;49.410;11.030;2023-06-10T12:32:21;9.63;;;2.40;;
68225;SDS011;55045;49.410;11.030;2023-06-10T12:35:29;3.78;;;2.40;;
68225;SDS011;55045;49.410;11.030;2023-06-10T12:38:32;2.00;;;1.75;;
68225;SDS011;55045;49.410;11.030;2023-06-10T12:41:38;4.15;;;2.58;;
68225;SDS011;55045;49.410;11.030;2023-06-10T12:44:41;1.75;;;1.17;;
68225;SDS011;55045;49.410;11.030;2023-06-10T12:47:45;2.80;;;2.47;;
68225;SDS011;55045;49.410;11.030;2023-06-10T12:50:50;4.57;;;1.98;;
68225;SDS011;55045;49.410;11.030;2023-06-10T12:53:54;2.60;;;2.30;;
68225;SDS011;55045;49.410;11.030;2023-06-10T12:56:59;1.50;;;1.10;;
68225;SDS011;55045;49.410;11.030;2023-06-10T13:00:02;3.38;;;2.10;;
68225;SDS011;55045;49.410;11.030;2023-06-10T13:03:10;2.05;;;1.80;;
68225;SDS011;55045;49.410;11.030;2023-06-10T13:06:13;2.35;;;1.77;;
68225;SDS011;55045;49.410;11.030;2023-06-10T13:09:16;1.80;;;1.67;;
68225;SDS011;55045;49.410;11.030;2023-06-10T13:12:21;2.67;;;2.00;;
68225;SDS011;55045;49.410;11.030;2023-06-10T13:15:45;2.53;;;2.28;;
68225;SDS011;55045;49.410;11.030;2023-06-10T13:18:48;2.78;;;1.75;;
68225;SDS011;55045;49.410;11.030;2023-06-10T13:21:51;2.10;;;1.90;;
68225;SDS011;55045;49.410;11.030;2023-06-10T13:24:55;3.38;;;2.47;;
68225;SDS011;55045;49.410;11.030;2023-06-10T13:27:59;1.73;;;1.63;;
68225;SDS011;55045;49.410;11.030;2023-06-10T13:31:02;1.95;;;1.77;;
68225;SDS011;55045;49.410;11.030;2023-06-10T13:34:06;2.50;;;1.50;;
68225;SDS011;55045;49.410;11.030;2023-06-10T13:37:09;2.83;;;2.10;;
68225;SDS011;55045;49.410;11.030;2023-06-10T13:40:14;1.58;;;1.48;;
68225;SDS011;55045;49.410;11.030;2023-06-10T13:43:19;2.65;;;2.08;;
68225;SDS011;55045;49.410;11.030;2023-06-10T13:46:22;2.58;;;2.17;;
68225;SDS011;55045;49.410;11.030;2023-06-10T13:49:26;2.65;;;2.17;;
68225;SDS011;55045;49.410;11.030;2023-06-10T13:52:29;2.13;;;1.92;;
68225;SDS011;55045;49.410;11.030;2023-06-10T13:55:32;4.63;;;2.03;;
68225;SDS011;55045;49.410;11.030;2023-06-10T13:58:37;2.92;;;2.17;;
68225;SDS011;55045;49.410;11.030;2023-06-10T14:01:42;1.53;;;1.40;;
68225;SDS011;55045;49.410;11.030;2023-06-10T14:04:45;2.13;;;1.75;;
68225;SDS011;55045;49.410;11.030;2023-06-10T14:07:48;3.92;;;2.10;;
68225;SDS011;55045;49.410;11.030;2023-06-10T14:10:52;6.80;;;2.45;;
68225;SDS011;55045;49.410;11.030;2023-06-10T14:13:56;2.83;;;2.35;;
68225;SDS011;55045;49.410;11.030;2023-06-10T14:17:00;2.33;;;2.08;;
68225;SDS011;55045;49.410;11.030;2023-06-10T14:20:03;2.10;;;1.90;;
68225;SDS011;55045;49.410;11.030;2023-06-10T14:23:07;2.33;;;2.13;;
68225;SDS011;55045;49.410;11.030;2023-06-10T14:26:10;3.38;;;2.35;;
68225;SDS011;55045;49.410;11.030;2023-06-10T14:29:15;2.53;;;1.98;;
68225;SDS011;55045;49.410;11.030;2023-06-10T14:32:20;3.80;;;2.15;;
68225;SDS011;55045;49.410;11.030;2023-06-10T14:35:23;2.05;;;1.85;;
68225;SDS011;55045;49.410;11.030;2023-06-10T14:38:27;3.33;;;2.13;;
68225;SDS011;55045;49.410;11.030;2023-06-10T14:41:30;1.88;;;1.77;;
68225;SDS011;55045;49.410;11.030;2023-06-10T14:44:34;1.85;;;1.58;;
68225;SDS011;55045;49.410;11.030;2023-06-10T14:47:38;1.70;;;1.35;;
68225;SDS011;55045;49.410;11.030;2023-06-10T14:50:42;1.20;;;1.13;;
68225;SDS011;55045;49.410;11.030;2023-06-10T14:53:48;1.55;;;1.45;;
68225;SDS011;55045;49.410;11.030;2023-06-10T14:56:52;4.10;;;1.40;;
68225;SDS011;55045;49.410;11.030;2023-06-10T14:59:56;2.47;;;1.80;;
68225;SDS011;55045;49.410;11.030;2023-06-10T15:03:00;2.30;;;1.95;;
68225;SDS011;55045;49.410;11.030;2023-06-10T15:06:04;1.92;;;1.65;;
68225;SDS011;55045;49.410;11.030;2023-06-10T15:09:07;1.80;;;1.70;;
68225;SDS011;55045;49.410;11.030;2023-06-10T15:12:11;6.18;;;2.00;;
68225;SDS011;55045;49.410;11.030;2023-06-10T15:15:15;1.70;;;1.60;;
68225;SDS011;55045;49.410;11.030;2023-06-10T15:18:18;2.22;;;2.03;;
68225;SDS011;55045;49.410;11.030;2023-06-10T15:21:22;1.65;;;1.55;;
68225;SDS011;55045;49.410;11.030;2023-06-10T15:24:25;2.08;;;1.88;;
68225;SDS011;55045;49.410;11.030;2023-06-10T15:27:29;2.80;;;2.10;;
68225;SDS011;55045;49.410;11.030;2023-06-10T15:34:19;1.35;;;1.25;;
68225;SDS011;55045;49.410;11.030;2023-06-10T15:37:22;1.67;;;1.58;;
68225;SDS011;55045;49.410;11.030;2023-06-10T15:40:26;2.35;;;1.83;;
68225;SDS011;55045;49.410;11.030;2023-06-10T15:43:29;3.63;;;2.15;;
68225;SDS011;55045;49.410;11.030;2023-06-10T15:46:33;2.65;;;1.98;;
68225;SDS011;55045;49.410;11.030;2023-06-10T15:49:38;4.55;;;2.08;;
68225;SDS011;55045;49.410;11.030;2023-06-10T15:52:42;2.83;;;1.90;;
68225;SDS011;55045;49.410;11.030;2023-06-10T15:55:45;3.00;;;1.33;;
68225;SDS011;55045;49.410;11.030;2023-06-10T15:58:48;1.85;;;1.70;;
68225;SDS011;55045;49.410;11.030;2023-06-10T16:01:53;2.70;;;2.50;;
68225;SDS011;55045;49.410;11.030;2023-06-10T16:04:58;3.95;;;2.15;;
68225;SDS011;55045;49.410;11.030;2023-06-10T16:08:01;4.90;;;2.47;;
68225;SDS011;55045;49.410;11.030;2023-06-10T16:11:04;2.35;;;2.15;;
68225;SDS011;55045;49.410;11.030;2023-06-10T16:14:08;2.10;;;1.92;;
68225;SDS011;55045;49.410;11.030;2023-06-10T16:17:11;4.13;;;2.60;;
68225;SDS011;55045;49.410;11.030;2023-06-10T16:20:16;3.05;;;2.58;;
68225;SDS011;55045;49.410;11.030;2023-06-10T16:23:19;3.70;;;2.28;;
68225;SDS011;55045;49.410;11.030;2023-06-10T16:26:22;3.10;;;2.75;;
68225;SDS011;55045;49.410;11.030;2023-06-10T16:29:26;6.88;;;3.03;;
68225;SDS011;55045;49.410;11.030;2023-06-10T16:32:29;4.20;;;2.75;;
68225;SDS011;55045;49.410;11.030;2023-06-10T16:35:34;4.55;;;3.15;;
68225;SDS011;55045;49.410;11.030;2023-06-10T16:38:37;6.00;;;2.95;;
68225;SDS011;55045;49.410;11.030;2023-06-10T16:41:40;3.28;;;2.60;;
68225;SDS011;55045;49.410;11.030;2023-06-10T16:44:43;5.07;;;3.58;;
68225;SDS011;55045;49.410;11.030;2023-06-10T16:47:47;7.75;;;2.53;;
68225;SDS011;55045;49.410;11.030;2023-06-10T16:50:51;6.63;;;2.97;;
68225;SDS011;55045;49.410;11.030;2023-06-10T16:53:55;6.47;;;3.03;;
68225;SDS011;55045;49.410;11.030;2023-06-10T16:56:58;4.55;;;3.50;;
68225;SDS011;55045;49.410;11.030;2023-06-10T17:00:01;3.17;;;2.85;;
68225;SDS011;55045;49.410;11.030;2023-06-10T17:03:06;4.18;;;2.90;;
68225;SDS011;55045;49.410;11.030;2023-06-10T17:06:13;12.60;;;3.55;;
68225;SDS011;55045;49.410;11.030;2023-06-10T17:09:16;5.63;;;4.00;;
68225;SDS011;55045;49.410;11.030;2023-06-10T17:12:22;3.38;;;2.92;;
68225;SDS011;55045;49.410;11.030;2023-06-10T17:15:25;3.38;;;2.50;;
68225;SDS011;55045;49.410;11.030;2023-06-10T17:18:28;4.38;;;3.13;;
68225;SDS011;55045;49.410;11.030;2023-06-10T17:21:33;3.70;;;2.78;;
68225;SDS011;55045;49.410;11.030;2023-06-10T17:24:37;5.07;;;2.65;;
68225;SDS011;55045;49.410;11.030;2023-06-10T17:27:41;6.30;;;3.17;;
68225;SDS011;55045;49.410;11.030;2023-06-10T17:30:44;4.15;;;2.13;;
68225;SDS011;55045;49.410;11.030;2023-06-10T17:33:49;6.57;;;2.22;;
68225;SDS011;55045;49.410;11.030;2023-06-10T17:36:55;2.78;;;2.45;;
68225;SDS011;55045;49.410;11.030;2023-06-10T17:39:59;2.13;;;1.95;;
68225;SDS011;55045;49.410;11.030;2023-06-10T17:43:02;3.08;;;2.75;;
68225;SDS011;55045;49.410;11.030;2023-06-10T17:46:05;2.97;;;2.20;;
68225;SDS011;55045;49.410;11.030;2023-06-10T17:49:09;8.98;;;3.25;;
68225;SDS011;55045;49.410;11.030;2023-06-10T17:52:13;6.03;;;3.00;;
68225;SDS011;55045;49.410;11.030;2023-06-10T17:55:17;4.63;;;2.63;;
68225;SDS011;55045;49.410;11.030;2023-06-10T17:58:20;4.38;;;3.33;;
68225;SDS011;55045;49.410;11.030;2023-06-10T18:01:23;3.05;;;2.03;;
68225;SDS011;55045;49.410;11.030;2023-06-10T18:04:26;3.20;;;2.45;;
68225;SDS011;55045;49.410;11.030;2023-06-10T18:07:31;2.83;;;2.25;;
68225;SDS011;55045;49.410;11.030;2023-06-10T18:10:34;2.83;;;2.45;;
68225;SDS011;55045;49.410;11.030;2023-06-10T18:13:38;4.22;;;2.63;;
68225;SDS011;55045;49.410;11.030;2023-06-10T18:16:41;5.10;;;2.47;;
68225;SDS011;55045;49.410;11.030;2023-06-10T18:19:44;2.42;;;1.98;;
68225;SDS011;55045;49.410;11.030;2023-06-10T18:22:49;7.35;;;3.00;;
68225;SDS011;55045;49.410;11.030;2023-06-10T18:25:52;6.47;;;3.00;;
68225;SDS011;55045;49.410;11.030;2023-06-10T18:28:56;4.95;;;3.17;;